Time;durP1;ratioP1;P1;durP2;ratioP2;P2;SDS_P1;SDS_P2;PMS_P1;PMS_P2;Temp;Humidity;BMP_temperature;BMP_pressure;BME280_temperature;BME280_humidity;BME280_pressure;Samples;Min_cycle;Max_cycle;Signal;HPM_P1;HPM_P2
2022/09/25 00:01:23;;;;;;;6.00;2.00;;;9.70;99.90;;;;;;5058181;28;20335;-78
2022/09/25 00:03:49;;;;;;;3.53;1.90;;;9.70;99.90;;;;;;5062287;28;20041;-77
2022/09/25 00:06:21;;;;;;;9.82;2.08;;;9.90;99.90;;;;;;5063541;28;20050;-78
2022/09/25 00:08:57;;;;;;;6.15;1.95;;;9.70;99.90;;;;;;5087622;28;20070;-78
2022/09/25 00:11:51;;;;;;;6.53;2.00;;;9.60;99.90;;;;;;5055474;28;20207;-78
2022/09/25 00:14:19;;;;;;;5.63;1.90;;;8.70;99.90;;;;;;5088005;28;20336;-78
2022/09/25 00:16:48;;;;;;;4.55;1.70;;;9.80;99.90;;;;;;5059249;28;20107;-79
2022/09/25 00:22:04;;;;;;;7.13;1.77;;;9.60;99.90;;;;;;5100833;28;20043;-79
2022/09/25 00:24:31;;;;;;;5.70;1.88;;;9.80;99.90;;;;;;5099532;28;20024;-81
2022/09/25 00:26:58;;;;;;;7.22;2.78;;;11.50;99.90;;;;;;5088437;28;20306;-80
2022/09/25 00:29:24;;;;;;;5.05;1.80;;;9.60;99.90;;;;;;5073744;28;20043;-78
2022/09/25 00:31:49;;;;;;;8.20;2.00;;;9.50;99.90;;;;;;5058916;28;20030;-80
2022/09/25 00:34:21;;;;;;;5.93;1.90;;;9.70;99.90;;;;;;5073670;28;20325;-80
2022/09/25 00:36:49;;;;;;;5.55;2.25;;;10.60;99.90;;;;;;5057733;28;20184;-78
2022/09/25 00:39:15;;;;;;;9.60;2.05;;;9.90;99.90;;;;;;5052347;28;20043;-80
2022/09/25 00:41:41;;;;;;;7.32;2.10;;;9.50;99.90;;;;;;5067786;28;20057;-77
2022/09/25 00:44:45;;;;;;;3.42;1.70;;;9.50;99.90;;;;;;5042059;28;20253;-79
2022/09/25 00:47:15;;;;;;;6.60;1.77;;;9.60;99.90;;;;;;5070752;28;20036;-80
2022/09/25 00:49:41;;;;;;;6.28;1.75;;;9.60;99.90;;;;;;5087676;28;20089;-78
2022/09/25 00:52:13;;;;;;;8.20;2.10;;;9.50;99.90;;;;;;5087966;28;20036;-78
2022/09/25 00:54:51;;;;;;;4.80;2.10;;;9.60;99.90;;;;;;5072008;28;20024;-78
2022/09/25 00:57:19;;;;;;;6.00;1.83;;;9.60;99.90;;;;;;5068728;28;20234;-77
2022/09/25 00:59:49;;;;;;;7.40;2.17;;;9.50;99.90;;;;;;5086304;28;20230;-80
2022/09/25 01:02:27;;;;;;;3.65;1.77;;;9.40;99.90;;;;;;5072156;28;20032;-80
2022/09/25 01:04:57;;;;;;;10.35;2.15;;;9.40;99.90;;;;;;5076157;28;20025;-79
2022/09/25 01:07:23;;;;;;;7.45;2.15;;;9.40;99.90;;;;;;5099606;28;20028;-77
2022/09/25 01:09:49;;;;;;;4.55;1.90;;;9.40;99.90;;;;;;5070709;28;20387;-77
2022/09/25 01:12:15;;;;;;;5.18;1.80;;;9.30;99.90;;;;;;5085090;28;20043;-78
2022/09/25 01:14:41;;;;;;;4.38;1.80;;;9.60;99.90;;;;;;5053986;28;20036;-78
2022/09/25 01:17:17;;;;;;;6.85;2.00;;;9.30;99.90;;;;;;5107955;28;20067;-78
2022/09/25 01:20:25;;;;;;;5.88;2.20;;;9.40;99.90;;;;;;5070652;28;20206;-78
2022/09/25 01:22:54;;;;;;;4.55;1.70;;;9.40;99.90;;;;;;5032988;28;20036;-78
2022/09/25 01:25:35;;;;;;;7.05;2.30;;;9.30;99.90;;;;;;5076051;28;20068;-77
2022/09/25 01:28:35;;;;;;;7.53;1.85;;;9.40;99.90;;;;;;5082735;28;20102;-76
2022/09/25 01:31:12;;;;;;;11.30;2.22;;;9.30;99.90;;;;;;5081171;28;20038;-77
2022/09/25 01:33:49;;;;;;;5.90;1.80;;;9.40;99.90;;;;;;5078628;28;20055;-77
2022/09/25 01:36:34;;;;;;;5.25;2.03;;;9.30;99.90;;;;;;5089285;28;20077;-78
2022/09/25 01:39:20;;;;;;;7.18;2.63;;;9.30;99.90;;;;;;5102015;28;20036;-76
2022/09/25 01:41:59;;;;;;;5.47;1.90;;;9.40;99.90;;;;;;5069885;28;20297;-77
2022/09/25 01:44:26;;;;;;;4.95;1.70;;;9.50;99.90;;;;;;5085717;28;20051;-77
2022/09/25 01:46:55;;;;;;;3.35;1.77;;;10.30;99.90;;;;;;5069770;28;20032;-78
2022/09/25 01:49:32;;;;;;;6.53;1.90;;;9.20;99.90;;;;;;5085883;28;20044;-77
2022/09/25 01:52:05;;;;;;;5.93;1.70;;;9.50;99.90;;;;;;5074963;28;20218;-77
2022/09/25 01:54:47;;;;;;;8.82;2.20;;;9.20;99.90;;;;;;5092226;28;20318;-77
2022/09/25 01:57:30;;;;;;;4.88;2.17;;;9.30;99.90;;;;;;5096239;28;20042;-77
2022/09/25 02:00:08;;;;;;;5.97;1.77;;;9.20;99.90;;;;;;5090621;28;20039;-80
2022/09/25 02:02:47;;;;;;;9.95;2.28;;;9.20;99.90;;;;;;5089848;28;20099;-77
2022/09/25 02:05:26;;;;;;;5.80;1.52;;;9.30;99.90;;;;;;5073388;28;20036;-78
2022/09/25 02:08:01;;;;;;;7.97;1.70;;;9.20;99.90;;;;;;5069918;28;20028;-77
2022/09/25 02:10:35;;;;;;;5.03;1.60;;;9.30;99.90;;;;;;5087131;28;20301;-79
2022/09/25 02:13:12;;;;;;;5.45;1.65;;;9.20;99.90;;;;;;5106985;28;20035;-78
2022/09/25 02:16:13;;;;;;;5.25;1.80;;;9.30;99.90;;;;;;5086098;28;20032;-80
2022/09/25 02:22:05;;;;;;;4.40;1.88;;;9.20;99.90;;;;;;5085096;28;20063;-78
2022/09/25 02:24:59;;;;;;;4.28;1.77;;;9.10;99.90;;;;;;5082419;28;20377;-80
2022/09/25 02:27:26;;;;;;;3.40;1.65;;;9.10;99.90;;;;;;5083718;28;20087;-79
2022/09/25 02:29:53;;;;;;;4.32;1.63;;;9.10;99.90;;;;;;5086485;28;20435;-80
2022/09/25 02:32:24;;;;;;;8.63;2.05;;;9.30;99.90;;;;;;5053223;28;20341;-78
2022/09/25 02:34:51;;;;;;;6.38;1.63;;;9.50;99.90;;;;;;5066906;28;20031;-80
2022/09/25 02:37:18;;;;;;;4.22;1.77;;;9.30;99.90;;;;;;5066693;28;20218;-80
2022/09/25 02:39:48;;;;;;;6.43;2.00;;;9.00;99.90;;;;;;5086452;28;20097;-80
2022/09/25 02:42:27;;;;;;;5.25;1.80;;;9.30;99.90;;;;;;5083686;28;20107;-80
2022/09/25 02:45:29;;;;;;;6.03;1.80;;;9.00;99.90;;;;;;5069020;28;20137;-80
2022/09/25 02:48:34;;;;;;;5.07;1.90;;;9.10;99.90;;;;;;5083367;28;20042;-78
2022/09/25 02:51:55;;;;;;;4.13;1.70;;;9.10;99.90;;;;;;5094135;28;20035;-78
2022/09/25 02:54:31;;;;;;;5.93;1.63;;;9.00;99.90;;;;;;5049019;28;20051;-77
2022/09/25 02:57:35;;;;;;;5.13;2.38;;;9.00;99.90;;;;;;5084885;28;20047;-79
2022/09/25 03:00:06;;;;;;;6.47;1.80;;;8.90;99.90;;;;;;4993857;28;20025;-79
2022/09/25 03:02:33;;;;;;;9.02;1.48;;;9.10;99.90;;;;;;5005570;28;20038;-79
2022/09/25 03:05:01;;;;;;;4.28;1.63;;;9.10;99.90;;;;;;5060923;28;20054;-77
2022/09/25 03:08:36;;;;;;;6.75;2.45;;;9.10;99.90;;;;;;5089124;28;20360;-78
2022/09/25 03:10:20;;;;;;;6.30;2.28;;;8.90;99.90;;;;;;5076941;28;20074;-79
2022/09/25 03:12:45;;;;;;;3.75;1.77;;;9.00;99.90;;;;;;5065160;28;20033;-80
2022/09/25 03:15:17;;;;;;;7.72;1.80;;;9.80;99.90;;;;;;5067831;28;20043;-80
2022/09/25 03:18:01;;;;;;;7.35;1.80;;;9.10;99.90;;;;;;5076612;28;20040;-79
2022/09/25 03:21:03;;;;;;;2.03;1.20;;;10.60;99.90;;;;;;5081822;28;20062;-77
2022/09/25 03:27:09;;;;;;;7.72;1.98;;;8.40;99.90;;;;;;5002653;28;20062;-77
2022/09/25 03:30:16;;;;;;;6.85;2.42;;;8.80;99.90;;;;;;5040097;28;20035;-79
2022/09/25 03:32:42;;;;;;;3.92;1.42;;;9.90;99.90;;;;;;5043983;28;20028;-79
2022/09/25 03:35:08;;;;;;;7.57;1.73;;;9.00;99.90;;;;;;5051546;28;20044;-79
2022/09/25 03:37:34;;;;;;;4.80;1.80;;;8.80;99.90;;;;;;5069575;28;20187;-78
2022/09/25 03:40:00;;;;;;;6.00;1.80;;;9.00;99.90;;;;;;5062112;28;20211;-79
2022/09/25 03:42:26;;;;;;;4.72;1.52;;;9.00;99.90;;;;;;5047507;28;20052;-80
2022/09/25 03:44:55;;;;;;;7.18;2.40;;;9.00;99.90;;;;;;5052619;28;20024;-78
2022/09/25 03:47:21;;;;;;;4.22;2.13;;;8.80;99.90;;;;;;5030950;28;20104;-80
2022/09/25 03:49:47;;;;;;;3.88;1.70;;;8.90;99.90;;;;;;5046545;28;20039;-78
2022/09/25 03:52:13;;;;;;;5.07;1.90;;;8.80;99.90;;;;;;5078609;28;20044;-77
2022/09/25 03:54:39;;;;;;;6.53;2.05;;;9.00;99.90;;;;;;5056386;28;20039;-76
2022/09/25 03:57:05;;;;;;;4.38;2.00;;;9.10;99.90;;;;;;5080759;28;20226;-79
2022/09/25 03:59:31;;;;;;;7.63;2.22;;;9.00;99.90;;;;;;5053620;28;20103;-78
2022/09/25 04:01:57;;;;;;;4.47;1.40;;;9.00;99.90;;;;;;5076472;28;20020;-76
2022/09/25 04:04:23;;;;;;;10.02;2.00;;;8.70;99.90;;;;;;5050493;28;20032;-78
2022/09/25 04:06:55;;;;;;;3.33;1.77;;;8.70;99.90;;;;;;5068537;28;20310;-78
2022/09/25 04:09:22;;;;;;;4.78;1.75;;;8.70;99.90;;;;;;5059425;28;20031;-79
2022/09/25 04:11:48;;;;;;;7.22;1.98;;;8.70;99.90;;;;;;5053916;28;20106;-79
2022/09/25 04:14:13;;;;;;;5.05;1.70;;;8.80;99.90;;;;;;5084564;28;20032;-79
2022/09/25 04:16:39;;;;;;;4.15;1.60;;;8.80;99.90;;;;;;5097828;28;20046;-77
2022/09/25 04:19:05;;;;;;;5.85;2.00;;;8.90;99.90;;;;;;5071144;28;20061;-79
2022/09/25 04:21:31;;;;;;;6.13;1.75;;;8.70;99.90;;;;;;5104875;28;20039;-77
2022/09/25 04:26:41;;;;;;;7.53;2.17;;;8.90;99.90;;;;;;5079010;28;20050;-80
2022/09/25 04:29:07;;;;;;;3.90;1.85;;;8.70;99.90;;;;;;5034876;28;20036;-78
2022/09/25 04:31:32;;;;;;;7.72;2.38;;;9.80;99.90;;;;;;5067956;28;20324;-79
2022/09/25 04:33:58;;;;;;;5.15;1.70;;;9.10;99.90;;;;;;5066622;28;20059;-78
2022/09/25 04:36:24;;;;;;;7.93;2.35;;;8.80;99.90;;;;;;5067585;28;20059;-77
2022/09/25 04:38:50;;;;;;;6.93;2.20;;;8.90;99.90;;;;;;5067639;28;20024;-77
2022/09/25 04:41:18;;;;;;;4.85;2.00;;;8.90;99.90;;;;;;5064447;28;20346;-78
2022/09/25 04:43:51;;;;;;;4.47;1.85;;;8.80;99.90;;;;;;5053610;28;20045;-77
2022/09/25 04:46:17;;;;;;;3.72;1.73;;;8.80;99.90;;;;;;5046541;28;20044;-80
2022/09/25 04:48:45;;;;;;;5.68;1.75;;;8.30;99.90;;;;;;5047666;28;20028;-76
2022/09/25 04:51:10;;;;;;;7.50;2.47;;;8.80;99.90;;;;;;5063893;28;20040;-76
2022/09/25 04:53:36;;;;;;;5.93;1.95;;;8.80;99.90;;;;;;5076455;28;20033;-78
2022/09/25 04:59:25;;;;;;;3.75;1.88;;;8.70;99.90;;;;;;5017038;28;20039;-77
2022/09/25 05:01:50;;;;;;;6.70;2.60;;;8.60;99.90;;;;;;5029894;28;20032;-77
2022/09/25 05:04:19;;;;;;;8.57;2.15;;;8.80;99.90;;;;;;5048693;28;20379;-79
2022/09/25 05:06:47;;;;;;;6.40;2.13;;;9.00;99.90;;;;;;5027280;28;20036;-78
2022/09/25 05:09:12;;;;;;;7.00;2.00;;;8.80;99.90;;;;;;5031999;28;20263;-78
2022/09/25 05:11:38;;;;;;;11.07;2.70;;;8.80;99.90;;;;;;5051375;28;20028;-78
2022/09/25 05:14:04;;;;;;;4.70;1.98;;;8.70;99.90;;;;;;5046213;28;20038;-77
2022/09/25 05:16:44;;;;;;;;;;;;;;;;;;;;;
2022/09/25 05:23:03;;;;;;;3.38;1.83;;;9.80;99.90;;;;;;4905218;29;20111;-75
2022/09/25 05:29:49;;;;;;;4.43;1.95;;;7.50;99.90;;;;;;5011127;28;20234;-76
2022/09/25 05:32:27;;;;;;;4.78;1.98;;;8.70;99.90;;;;;;4956361;28;20270;-76
2022/09/25 05:38:46;;;;;;;7.28;2.30;;;7.40;99.90;;;;;;4997146;28;20236;-76
2022/09/25 05:41:15;;;;;;;4.22;2.13;;;8.80;99.90;;;;;;5011098;28;20115;-78
2022/09/25 05:43:43;;;;;;;5.10;1.95;;;8.80;99.90;;;;;;5011091;28;20045;-78
2022/09/25 05:46:09;;;;;;;6.28;1.83;;;8.80;99.90;;;;;;5060090;28;20760;-76
2022/09/25 05:48:36;;;;;;;6.80;1.95;;;8.70;99.90;;;;;;5063177;28;20064;-76
2022/09/25 05:51:02;;;;;;;5.57;2.70;;;8.80;99.90;;;;;;5046208;28;20207;-76
2022/09/25 05:53:29;;;;;;;7.05;2.30;;;8.80;99.90;;;;;;5047125;28;20044;-76
2022/09/25 05:56:01;;;;;;;9.30;2.30;;;8.90;99.90;;;;;;5009918;28;20093;-76
2022/09/25 05:58:28;;;;;;;4.05;2.38;;;8.80;99.90;;;;;;5043510;28;20108;-76
2022/09/25 06:00:53;;;;;;;7.43;2.35;;;8.90;99.90;;;;;;5010727;28;20025;-76
2022/09/25 06:03:20;;;;;;;7.88;2.50;;;9.30;99.90;;;;;;5031244;28;20071;-76
2022/09/25 06:05:46;;;;;;;3.83;2.25;;;9.40;99.90;;;;;;5014797;28;20025;-76
2022/09/25 06:08:12;;;;;;;4.93;1.92;;;9.40;99.90;;;;;;5046026;28;20204;-76
2022/09/25 06:10:41;;;;;;;8.25;2.10;;;9.50;99.90;;;;;;5045992;28;20511;-76
2022/09/25 06:13:07;;;;;;;8.77;2.05;;;9.60;99.90;;;;;;5028476;28;20138;-76
2022/09/25 06:15:40;;;;;;;5.43;1.60;;;9.50;99.90;;;;;;5042661;28;20311;-76
2022/09/25 06:18:07;;;;;;;6.38;1.80;;;9.90;99.90;;;;;;5045680;28;20109;-76
2022/09/25 06:20:34;;;;;;;7.20;2.20;;;10.00;99.90;;;;;;5046431;28;20025;-76
2022/09/25 06:23:00;;;;;;;4.70;1.80;;;10.10;99.90;;;;;;5029257;28;20112;-76
2022/09/25 06:25:29;;;;;;;8.23;1.60;;;10.00;99.90;;;;;;5045084;28;20029;-76
2022/09/25 06:27:56;;;;;;;9.10;2.10;;;10.40;99.90;;;;;;5055948;28;20036;-75
2022/09/25 06:30:26;;;;;;;3.15;1.90;;;10.40;99.90;;;;;;5059041;28;20421;-75
2022/09/25 06:33:01;;;;;;;3.63;1.42;;;10.50;99.90;;;;;;5062630;28;20097;-75
2022/09/25 06:35:30;;;;;;;5.88;1.70;;;10.80;99.90;;;;;;5045714;28;20057;-75
2022/09/25 06:37:57;;;;;;;7.68;1.70;;;10.80;99.90;;;;;;5028321;28;20039;-76
2022/09/25 06:40:26;;;;;;;2.20;1.30;;;10.90;99.90;;;;;;5029249;28;20116;-75
2022/09/25 06:42:59;;;;;;;6.40;2.08;;;11.00;99.90;;;;;;5038613;28;20335;-75
2022/09/25 06:45:26;;;;;;;3.88;1.40;;;11.00;99.90;;;;;;5055072;28;20319;-76
2022/09/25 06:47:56;;;;;;;4.50;1.90;;;10.90;99.90;;;;;;5044404;28;20192;-76
2022/09/25 06:50:28;;;;;;;6.10;2.13;;;11.00;99.90;;;;;;5049157;28;20478;-76
2022/09/25 06:52:54;;;;;;;4.75;1.50;;;10.80;99.90;;;;;;5065162;28;20112;-77
2022/09/25 06:55:23;;;;;;;3.88;1.50;;;11.10;99.90;;;;;;5048881;28;20199;-75
2022/09/25 06:57:49;;;;;;;4.97;1.63;;;11.30;99.90;;;;;;5072844;28;20342;-77
2022/09/25 07:00:14;;;;;;;3.88;1.70;;;11.10;99.90;;;;;;5063972;28;20028;-76
2022/09/25 07:05:33;;;;;;;5.05;1.33;;;11.20;99.90;;;;;;5054192;28;20032;-76
2022/09/25 07:08:00;;;;;;;4.35;1.30;;;12.40;99.90;;;;;;5064040;28;20055;-76
2022/09/25 07:10:28;;;;;;;6.65;1.48;;;11.60;99.90;;;;;;5048543;28;20043;-76
2022/09/25 07:13:32;;;;;;;2.88;1.40;;;12.60;99.90;;;;;;5046739;28;20040;-76
2022/09/25 07:16:26;;;;;;;4.10;1.52;;;11.50;99.90;;;;;;5064448;28;20032;-76
2022/09/25 07:18:59;;;;;;;3.38;1.00;;;11.60;99.90;;;;;;5071715;28;20040;-75
2022/09/25 07:21:28;;;;;;;2.35;1.35;;;11.10;99.90;;;;;;5081243;28;20096;-76
2022/09/25 07:23:54;;;;;;;12.10;2.22;;;12.00;99.90;;;;;;5048196;28;20028;-75
2022/09/25 07:26:25;;;;;;;5.18;1.23;;;11.90;99.90;;;;;;5047814;28;20044;-76
2022/09/25 07:28:59;;;;;;;6.93;1.58;;;12.00;99.90;;;;;;5062523;28;20087;-77
2022/09/25 07:31:28;;;;;;;3.28;1.17;;;12.10;99.90;;;;;;5079602;28;20072;-77
2022/09/25 07:33:56;;;;;;;6.45;1.30;;;12.20;99.90;;;;;;5074555;28;20028;-77
2022/09/25 07:36:51;;;;;;;3.83;1.20;;;12.60;99.90;;;;;;5073069;28;20230;-75
2022/09/25 07:39:17;;;;;;;5.28;1.10;;;12.60;99.90;;;;;;5062095;28;20395;-76
2022/09/25 07:42:01;;;;;;;3.28;1.30;;;12.60;99.90;;;;;;5064080;28;20053;-76
2022/09/25 07:44:43;;;;;;;2.73;1.13;;;12.80;99.90;;;;;;5061444;28;20208;-76
2022/09/25 07:47:57;;;;;;;3.53;0.98;;;12.90;99.90;;;;;;5079227;28;20346;-76
2022/09/25 07:50:56;;;;;;;5.53;1.42;;;12.90;99.90;;;;;;5002488;28;20358;-76
2022/09/25 07:53:21;;;;;;;4.43;1.40;;;13.00;99.90;;;;;;5052750;28;20033;-77
2022/09/25 07:55:57;;;;;;;2.72;1.00;;;13.50;99.90;;;;;;5064220;28;20043;-76
2022/09/25 07:58:22;;;;;;;4.75;1.00;;;13.30;99.90;;;;;;5064211;28;20035;-75
2022/09/25 08:00:57;;;;;;;5.20;1.23;;;13.70;99.90;;;;;;5064355;28;20188;-76
2022/09/25 08:03:43;;;;;;;7.13;1.25;;;13.70;99.90;;;;;;5080208;28;20039;-76
2022/09/25 08:06:14;;;;;;;8.75;1.20;;;13.80;99.90;;;;;;5063439;28;20107;-75
2022/09/25 08:08:41;;;;;;;3.83;1.27;;;13.10;99.90;;;;;;5047712;28;20277;-75
2022/09/25 08:11:27;;;;;;;;;;;;;;;;;;;;;
2022/09/25 08:14:16;;;;;;;3.17;0.90;;;14.70;99.90;;;;;;5052926;28;20035;-76
2022/09/25 08:16:57;;;;;;;12.23;1.35;;;13.90;99.90;;;;;;5080186;28;20048;-75
2022/09/25 08:19:22;;;;;;;3.55;0.80;;;14.00;99.90;;;;;;5080468;28;20075;-75
2022/09/25 08:21:49;;;;;;;4.07;1.10;;;14.10;99.90;;;;;;5064249;28;20029;-76
2022/09/25 08:24:15;;;;;;;3.65;1.00;;;14.10;99.90;;;;;;5069999;28;20099;-78
2022/09/25 08:26:40;;;;;;;5.50;1.08;;;14.10;99.90;;;;;;5048679;28;20223;-77
2022/09/25 08:29:10;;;;;;;5.25;1.17;;;14.00;99.90;;;;;;5047378;28;20029;-78
2022/09/25 08:31:38;;;;;;;2.65;1.00;;;14.10;99.90;;;;;;5028445;28;20040;-77
2022/09/25 08:34:07;;;;;;;2.15;0.82;;;14.10;99.90;;;;;;5066282;28;20038;-77
2022/09/25 08:36:33;;;;;;;2.55;1.10;;;14.10;99.90;;;;;;5084150;28;20052;-76
2022/09/25 08:38:59;;;;;;;7.05;1.33;;;14.10;99.90;;;;;;5051995;28;20033;-75
2022/09/25 08:41:29;;;;;;;5.50;1.10;;;14.20;99.90;;;;;;5018403;28;20154;-75
2022/09/25 08:43:55;;;;;;;3.97;0.95;;;14.30;99.90;;;;;;5067998;28;20044;-75
2022/09/25 08:49:13;;;;;;;3.42;1.33;;;14.60;99.90;;;;;;5067344;28;20044;-75
2022/09/25 08:51:47;;;;;;;6.20;1.60;;;14.70;99.90;;;;;;5051380;28;20036;-75
2022/09/25 08:54:33;;;;;;;5.70;0.90;;;14.90;99.90;;;;;;5050982;28;20336;-76
2022/09/25 08:57:38;;;;;;;6.13;1.23;;;15.20;99.90;;;;;;5047667;28;20351;-75
2022/09/25 09:00:21;;;;;;;2.92;0.90;;;15.20;99.90;;;;;;4985294;28;20034;-75
2022/09/25 09:06:13;;;;;;;1.60;0.80;;;14.40;99.90;;;;;;5056427;28;20075;-76
2022/09/25 09:09:00;;;;;;;1.65;0.60;;;14.40;99.90;;;;;;5063577;28;20048;-75
2022/09/25 09:11:37;;;;;;;3.70;0.88;;;14.30;99.90;;;;;;5045932;28;20078;-75
2022/09/25 09:14:09;;;;;;;2.90;0.90;;;14.20;99.90;;;;;;5046478;28;20040;-75
2022/09/25 09:16:47;;;;;;;1.42;0.73;;;14.10;99.90;;;;;;5049470;28;20048;-76
2022/09/25 09:19:13;;;;;;;1.15;0.60;;;14.20;99.90;;;;;;5044529;28;20063;-76
2022/09/25 09:21:51;;;;;;;2.30;0.70;;;14.20;99.90;;;;;;5049625;28;20037;-76
2022/09/25 09:25:00;;;;;;;2.63;0.93;;;14.20;99.90;;;;;;5049635;28;20031;-77
2022/09/25 09:28:20;;;;;;;1.98;0.70;;;14.40;99.90;;;;;;5065874;28;20049;-76
2022/09/25 09:34:41;;;;;;;;;;;;;;;;;;;;;
2022/09/25 09:37:52;;;;;;;2.70;0.75;;;14.90;99.90;;;;;;5070321;28;20071;-76
2022/09/25 09:40:18;;;;;;;1.83;0.82;;;13.80;99.90;;;;;;5047742;28;20033;-77
2022/09/25 09:43:21;;;;;;;3.08;0.80;;;13.70;99.90;;;;;;5065879;28;20141;-78
2022/09/25 09:45:55;;;;;;;;;;;13.70;99.90;;;;;;5071841;28;20032;-81
2022/09/25 09:49:06;;;;;;;3.60;1.00;;;13.50;99.90;;;;;;5043102;28;19920;-80
2022/09/25 09:51:41;;;;;;;3.33;0.85;;;13.00;99.90;;;;;;4978244;28;20114;-81
2022/09/25 09:54:47;;;;;;;1.60;0.80;;;13.10;99.90;;;;;;5050033;28;20063;-80
2022/09/25 09:57:21;;;;;;;3.97;0.80;;;13.40;99.90;;;;;;5048376;28;20171;-80
2022/09/25 10:00:05;;;;;;;1.55;0.70;;;13.00;99.90;;;;;;5066122;28;20083;-78
2022/09/25 10:02:54;;;;;;;5.30;1.02;;;13.10;99.90;;;;;;5032245;28;20037;-77
2022/09/25 10:05:28;;;;;;;2.70;0.90;;;13.10;99.90;;;;;;5063047;28;20033;-77
2022/09/25 10:07:53;;;;;;;5.43;2.08;;;13.30;99.90;;;;;;5047712;28;20075;-80
2022/09/25 10:10:37;;;;;;;3.28;1.00;;;13.30;99.90;;;;;;5043323;28;20092;-78
2022/09/25 10:13:41;;;;;;;3.13;0.95;;;13.70;99.90;;;;;;5050240;28;20044;-78
2022/09/25 10:16:15;;;;;;;2.78;1.00;;;13.50;99.90;;;;;;5057630;28;20048;-79
2022/09/25 10:19:10;;;;;;;6.40;1.00;;;13.90;99.90;;;;;;5047776;28;20044;-79
2022/09/25 10:21:57;;;;;;;1.77;0.90;;;13.80;99.90;;;;;;5065787;28;20335;-77
2022/09/25 10:25:00;;;;;;;4.00;1.23;;;14.10;99.90;;;;;;5061724;28;20091;-77
2022/09/25 10:27:27;;;;;;;3.42;1.00;;;14.20;99.90;;;;;;5032677;28;20226;-77
2022/09/25 10:30:34;;;;;;;4.90;0.98;;;14.40;99.90;;;;;;5049488;28;20099;-79
2022/09/25 10:37:20;;;;;;;3.05;0.98;;;14.50;99.90;;;;;;5038508;28;20045;-78
2022/09/25 10:40:01;;;;;;;3.78;1.10;;;15.00;99.90;;;;;;5028223;28;20094;-78
2022/09/25 10:42:40;;;;;;;3.47;1.00;;;15.30;99.90;;;;;;5038955;28;20457;-78
2022/09/25 10:45:52;;;;;;;;;;;;;;;;;;;;;
2022/09/25 10:57:00;;;;;;;;;;;;;;;;;;;;;
2022/09/25 11:00:28;;;;;;;4.53;1.10;;;15.30;99.90;;;;;;4909669;29;20056;-78
2022/09/25 11:10:08;;;;;;;2.78;0.90;;;14.70;99.90;;;;;;4878884;28;20292;-78
2022/09/25 11:12:44;;;;;;;5.18;0.90;;;15.50;99.90;;;;;;4965107;28;20062;-77
2022/09/25 11:15:19;;;;;;;2.53;0.95;;;15.40;99.90;;;;;;5024427;28;20048;-81
2022/09/25 11:18:03;;;;;;;2.78;0.90;;;15.20;99.90;;;;;;5058131;28;20042;-80
2022/09/25 11:20:31;;;;;;;3.75;0.50;;;15.30;99.90;;;;;;5042113;28;20041;-79
2022/09/25 11:23:57;;;;;;;1.83;0.70;;;15.50;99.90;;;;;;5045116;28;20047;-79
2022/09/25 11:26:32;;;;;;;0.95;0.50;;;15.90;99.90;;;;;;5046614;28;20035;-81
2022/09/25 11:33:11;;;;;;;1.90;0.70;;;15.50;99.90;;;;;;5004523;28;20252;-79
2022/09/25 11:35:58;;;;;;;1.15;0.75;;;15.50;99.90;;;;;;5057840;28;20274;-77
2022/09/25 11:41:44;;;;;;;2.05;0.70;;;15.80;99.90;;;;;;5044177;28;20664;-80
2022/09/25 11:44:25;;;;;;;1.42;0.70;;;16.00;99.90;;;;;;5040792;28;20368;-80
2022/09/25 11:47:27;;;;;;;4.50;1.25;;;15.90;99.90;;;;;;5043669;28;20041;-80
2022/09/25 11:49:57;;;;;;;3.25;0.75;;;15.80;99.90;;;;;;5007980;28;20076;-80
2022/09/25 11:52:44;;;;;;;2.10;0.75;;;15.80;99.90;;;;;;5047158;28;20051;-79
2022/09/25 11:55:31;;;;;;;3.22;1.27;;;15.60;99.90;;;;;;5042692;28;20032;-79
2022/09/25 11:58:28;;;;;;;2.50;0.95;;;16.00;99.90;;;;;;5046485;28;20060;-81
2022/09/25 12:01:12;;;;;;;4.47;1.00;;;15.00;99.90;;;;;;5047908;28;20029;-78
2022/09/25 12:03:57;;;;;;;2.53;0.90;;;15.60;99.90;;;;;;5045250;28;20029;-78
2022/09/25 12:07:11;;;;;;;1.27;0.70;;;15.60;99.90;;;;;;5045706;28;20040;-78
2022/09/25 12:10:14;;;;;;;2.85;0.93;;;15.90;99.90;;;;;;4991045;28;20070;-79
2022/09/25 12:13:17;;;;;;;2.50;1.05;;;15.80;99.90;;;;;;5060308;28;20077;-80
2022/09/25 12:16:01;;;;;;;1.80;0.70;;;15.90;99.90;;;;;;5006352;28;20036;-79
2022/09/25 12:18:48;;;;;;;2.65;0.60;;;16.10;99.90;;;;;;5043331;28;20048;-80
2022/09/25 12:21:33;;;;;;;5.43;1.10;;;16.00;99.90;;;;;;5045541;28;20318;-79
2022/09/25 12:24:41;;;;;;;4.32;0.95;;;16.00;99.90;;;;;;5060288;28;20039;-80
2022/09/25 12:30:41;;;;;;;6.57;1.10;;;15.80;99.90;;;;;;5018416;28;20079;-79
2022/09/25 12:33:26;;;;;;;1.92;0.70;;;15.80;99.90;;;;;;5045198;28;20033;-80
2022/09/25 12:35:57;;;;;;;3.55;1.10;;;15.70;99.90;;;;;;5065390;28;20039;-80
2022/09/25 12:38:47;;;;;;;4.07;1.13;;;15.70;99.90;;;;;;5042465;28;20037;-79
2022/09/25 12:41:22;;;;;;;3.92;1.02;;;15.60;99.90;;;;;;5036457;28;20061;-80
2022/09/25 12:44:20;;;;;;;8.30;1.15;;;15.50;99.90;;;;;;5057625;28;20682;-80
2022/09/25 12:46:56;;;;;;;2.60;0.73;;;15.30;99.90;;;;;;5047262;28;20044;-81
2022/09/25 12:49:32;;;;;;;3.40;0.90;;;15.30;99.90;;;;;;5061240;28;20361;-81
2022/09/25 12:52:04;;;;;;;4.03;1.00;;;15.40;99.90;;;;;;5045786;28;20024;-81
2022/09/25 12:54:49;;;;;;;3.15;0.90;;;15.40;99.90;;;;;;5058103;28;20033;-81
2022/09/25 12:57:27;;;;;;;4.00;1.30;;;15.60;99.90;;;;;;5046418;28;20037;-80
2022/09/25 13:00:18;;;;;;;1.52;0.70;;;15.40;99.90;;;;;;5058066;28;20055;-81
2022/09/25 13:03:06;;;;;;;2.45;0.60;;;15.50;99.90;;;;;;5025900;28;20025;-79
2022/09/25 13:05:44;;;;;;;4.50;1.08;;;15.60;99.90;;;;;;5057014;28;20016;-79
2022/09/25 13:08:33;;;;;;;3.85;0.93;;;15.50;99.90;;;;;;5053914;28;20025;-78
2022/09/25 13:11:11;;;;;;;2.13;0.68;;;15.60;99.90;;;;;;5051191;28;20039;-79
2022/09/25 13:13:51;;;;;;;1.40;0.52;;;16.20;99.90;;;;;;5045567;28;20067;-79
2022/09/25 13:16:17;;;;;;;3.05;0.65;;;15.80;99.90;;;;;;5046782;28;20364;-79
2022/09/25 13:18:48;;;;;;;4.20;0.60;;;16.00;99.90;;;;;;5013018;28;20028;-79
2022/09/25 13:21:25;;;;;;;20.27;1.15;;;16.00;99.90;;;;;;5049762;28;20064;-78
2022/09/25 13:23:53;;;;;;;3.90;0.98;;;16.20;99.90;;;;;;5063518;28;20044;-78
2022/09/25 13:26:26;;;;;;;3.15;0.70;;;16.00;99.90;;;;;;5047451;28;20032;-80
2022/09/25 13:29:34;;;;;;;2.78;0.60;;;15.80;99.90;;;;;;5051648;28;20176;-79
2022/09/25 13:32:22;;;;;;;3.35;0.65;;;15.70;99.90;;;;;;5019057;28;20063;-79
2022/09/25 13:34:52;;;;;;;1.60;0.65;;;15.00;99.90;;;;;;5056230;28;20051;-78
2022/09/25 13:37:28;;;;;;;4.13;0.88;;;15.70;99.90;;;;;;5047411;28;20040;-81
2022/09/25 13:42:42;;;;;;;1.88;0.60;;;15.70;99.90;;;;;;5054642;28;20053;-78
2022/09/25 13:45:32;;;;;;;4.78;0.90;;;15.80;99.90;;;;;;5041980;28;20037;-80
2022/09/25 13:48:09;;;;;;;2.90;0.60;;;16.10;99.90;;;;;;5048530;28;20029;-82
2022/09/25 13:51:21;;;;;;;;;;;;;;;;;;;;;
2022/09/25 13:58:34;;;;;;;2.15;0.60;;;15.50;99.90;;;;;;4978754;28;20348;-79
2022/09/25 14:01:09;;;;;;;1.67;1.00;;;15.80;99.90;;;;;;4942547;28;20097;-81
2022/09/25 14:03:48;;;;;;;1.30;0.80;;;15.90;99.90;;;;;;5053993;28;20037;-78
2022/09/25 14:06:27;;;;;;;2.45;0.73;;;15.80;99.90;;;;;;5042595;28;20038;-80
2022/09/25 14:08:55;;;;;;;1.90;0.80;;;15.70;99.90;;;;;;5073361;28;20036;-79
2022/09/25 14:11:34;;;;;;;2.60;0.77;;;15.70;99.90;;;;;;5074151;28;20347;-78
2022/09/25 14:15:04;;;;;;;3.05;0.52;;;15.80;99.90;;;;;;5060348;28;20072;-78
2022/09/25 14:17:36;;;;;;;2.63;0.88;;;15.80;99.90;;;;;;4947926;28;20047;-79
2022/09/25 14:20:13;;;;;;;3.00;1.00;;;15.10;99.90;;;;;;5077267;28;20070;-78
2022/09/25 14:22:44;;;;;;;3.65;0.90;;;16.10;99.90;;;;;;5064917;28;20025;-78
2022/09/25 14:25:36;;;;;;;2.63;0.63;;;15.70;99.90;;;;;;5069094;28;20388;-78
2022/09/25 14:28:16;;;;;;;3.20;0.60;;;15.40;99.90;;;;;;5064259;28;20029;-79
2022/09/25 14:30:51;;;;;;;2.60;0.77;;;15.20;99.90;;;;;;5051920;28;20036;-78
2022/09/25 14:33:54;;;;;;;2.40;0.60;;;15.00;99.90;;;;;;5065177;28;20051;-78
2022/09/25 14:36:40;;;;;;;2.58;0.70;;;14.80;99.90;;;;;;5067336;28;20223;-78
2022/09/25 14:39:26;;;;;;;1.33;0.52;;;14.60;99.90;;;;;;5047017;28;20192;-78
2022/09/25 14:42:25;;;;;;;3.22;1.05;;;14.80;99.90;;;;;;5057983;28;20364;-77
2022/09/25 14:44:54;;;;;;;4.05;1.00;;;14.80;99.90;;;;;;5066092;28;20040;-79
2022/09/25 14:47:20;;;;;;;2.28;0.70;;;14.80;99.90;;;;;;5051711;28;20379;-78
2022/09/25 14:49:51;;;;;;;1.33;0.70;;;14.80;99.90;;;;;;5064547;28;20041;-78
2022/09/25 14:52:22;;;;;;;4.40;0.80;;;14.80;99.90;;;;;;5068723;28;20070;-78
2022/09/25 14:54:50;;;;;;;2.55;0.90;;;14.70;99.90;;;;;;5063642;28;20043;-79
2022/09/25 14:57:21;;;;;;;4.97;2.22;;;14.90;99.90;;;;;;5038581;28;20068;-78
2022/09/25 14:59:53;;;;;;;3.97;0.85;;;15.00;99.90;;;;;;5060989;28;20020;-77
2022/09/25 15:02:26;;;;;;;3.65;0.68;;;15.10;99.90;;;;;;5053510;28;20024;-79
2022/09/25 15:04:57;;;;;;;2.10;0.80;;;15.30;99.90;;;;;;5061125;28;20024;-79
2022/09/25 15:07:26;;;;;;;1.95;0.80;;;15.40;99.90;;;;;;5037706;28;20020;-79